createdAt,value
2023-01-11T02:16:36.612Z,634.00
2023-01-11T02:17:36.604Z,630.00
2023-01-11T02:18:36.593Z,631.00
2023-01-11T02:19:36.545Z,629.00
2023-01-11T02:20:36.506Z,626.00
2023-01-11T02:21:36.477Z,632.00
2023-01-11T02:22:36.470Z,629.00
2023-01-11T02:23:36.452Z,632.00
2023-01-11T02:24:36.420Z,630.00
2023-01-11T02:25:36.383Z,632.00
2023-01-11T02:26:36.362Z,629.00
2023-01-11T02:27:36.332Z,631.00
2023-01-11T02:28:36.324Z,629.00
2023-01-11T02:30:36.255Z,629.00
2023-01-11T02:31:36.419Z,634.00
2023-01-11T02:32:36.199Z,632.00
2023-01-11T02:33:36.201Z,626.00
2023-01-11T02:34:36.130Z,628.00
2023-01-11T02:35:36.140Z,629.00
2023-01-11T02:36:36.107Z,625.00
2023-01-11T02:37:36.052Z,628.00
2023-01-11T02:38:36.027Z,627.00
2023-01-11T02:39:36.009Z,628.00
2023-01-11T02:40:35.996Z,628.00
2023-01-11T02:41:35.950Z,628.00
2023-01-11T02:42:35.922Z,629.00
2023-01-11T02:43:35.915Z,629.00
2023-01-11T02:44:35.902Z,629.00
2023-01-11T02:45:35.895Z,632.00
2023-01-11T02:46:35.886Z,628.00
2023-01-11T02:47:35.815Z,632.00
2023-01-11T02:48:35.778Z,632.00
2023-01-11T02:49:35.764Z,625.00
2023-01-11T02:50:35.735Z,627.00
2023-01-11T02:51:35.714Z,628.00
2023-01-11T02:52:35.702Z,623.00
2023-01-11T02:53:35.668Z,628.00
2023-01-11T02:54:35.673Z,627.00
2023-01-11T02:55:35.631Z,630.00
2023-01-11T02:56:35.612Z,627.00
2023-01-11T02:57:35.590Z,628.00
2023-01-11T02:58:35.574Z,626.00
2023-01-11T02:59:35.565Z,622.00
2023-01-11T03:00:35.510Z,628.00
2023-01-11T03:01:35.594Z,626.00
2023-01-11T03:02:35.534Z,626.00
2023-01-11T03:03:35.429Z,626.00
2023-01-11T03:04:35.412Z,628.00
2023-01-11T03:05:35.374Z,628.00
2023-01-11T03:06:35.409Z,629.00
2023-01-11T03:07:35.333Z,624.00
2023-01-11T03:08:35.308Z,628.00
2023-01-11T03:09:35.267Z,626.00
2023-01-11T03:10:35.243Z,628.00
2023-01-11T03:11:35.209Z,623.00
2023-01-11T03:12:35.190Z,624.00
2023-01-11T05:37:31.182Z,568.00
2023-01-11T06:01:30.983Z,442.00
2023-01-11T06:03:30.964Z,494.00
2023-01-11T06:04:30.936Z,504.00
2023-01-11T06:05:30.887Z,509.00
2023-01-11T06:06:30.920Z,502.00
2023-01-11T06:07:30.856Z,502.00
2023-01-11T06:08:30.864Z,503.00
2023-01-11T06:09:30.823Z,500.00
2023-01-11T06:10:30.817Z,497.00
2023-01-11T06:11:30.792Z,499.00
2023-01-11T06:12:30.778Z,500.00
2023-01-11T06:13:30.752Z,508.00
2023-01-11T06:14:30.724Z,508.00
2023-01-11T06:15:30.710Z,508.00
2023-01-11T06:16:30.810Z,508.00
2023-01-11T06:17:30.669Z,506.00
2023-01-11T06:18:30.653Z,508.00
2023-01-11T06:19:30.636Z,504.00
2023-01-11T06:20:30.624Z,478.00
2023-01-11T06:21:30.593Z,470.00
2023-01-11T06:22:30.614Z,465.00
2023-01-11T06:23:30.579Z,507.00
2023-01-11T06:24:30.529Z,505.00
2023-01-11T06:25:30.520Z,506.00
2023-01-11T06:26:30.474Z,512.00
2023-01-11T06:27:30.448Z,507.00
2023-01-11T06:28:30.449Z,500.00
2023-01-11T06:29:30.408Z,503.00
2023-01-11T06:30:30.466Z,517.00
2023-01-11T06:31:30.388Z,514.00
2023-01-11T06:32:30.344Z,512.00
2023-01-11T06:33:30.369Z,513.00
2023-01-11T06:34:30.312Z,515.00
2023-01-11T06:35:30.300Z,523.00
2023-01-11T06:36:30.324Z,521.00
2023-01-11T06:37:30.275Z,496.00
2023-01-11T06:38:30.271Z,502.00
2023-01-11T06:39:30.277Z,502.00
2023-01-11T06:40:30.244Z,499.00
2023-01-11T06:41:30.235Z,508.00
2023-01-11T06:42:30.256Z,528.00
2023-01-11T06:43:30.251Z,517.00
2023-01-11T06:44:30.248Z,546.00
2023-01-11T06:45:30.288Z,564.00
2023-01-11T06:46:30.270Z,577.00
2023-01-11T06:47:30.226Z,595.00
2023-01-11T06:48:30.214Z,602.00
2023-01-11T06:50:30.180Z,613.00
2023-01-11T06:51:30.170Z,637.00
2023-01-11T06:52:30.165Z,643.00
2023-01-11T06:53:30.138Z,659.00
2023-01-11T06:54:30.145Z,660.00
2023-01-11T06:55:30.124Z,663.00
2023-01-11T06:56:30.082Z,680.00
2023-01-11T06:57:30.069Z,734.00
2023-01-11T06:58:30.125Z,789.00
2023-01-11T06:59:30.025Z,819.00
2023-01-11T07:26:31.059Z,982.00
2023-01-11T07:27:29.911Z,1023.00
2023-01-11T07:28:29.927Z,1099.00
2023-01-11T07:29:30.675Z,1206.00
2023-01-11T07:30:29.940Z,1304.00
2023-01-11T07:31:29.653Z,1305.00
2023-01-11T07:32:29.522Z,1339.00
2023-01-11T07:33:29.472Z,1316.00
2023-01-11T07:34:29.486Z,1317.00
2023-01-11T07:35:29.466Z,1322.00
2023-01-11T07:36:29.388Z,1325.00
2023-01-11T07:37:29.653Z,1342.00
2023-01-11T07:38:29.354Z,1343.00
2023-01-11T07:39:42.992Z,1344.00
2023-01-11T07:40:30.340Z,1345.00
2023-01-11T07:41:29.282Z,1348.00
2023-01-11T07:42:30.168Z,1318.00
2023-01-11T07:43:30.798Z,1345.00
2023-01-11T07:44:29.179Z,1346.00
2023-01-11T07:45:40.852Z,1331.00
2023-01-11T07:46:29.240Z,1324.00
2023-01-11T07:47:29.084Z,1242.00
2023-01-11T07:48:29.054Z,1109.00
2023-01-11T07:49:29.018Z,1057.00
2023-01-11T07:50:29.128Z,1139.00
2023-01-11T07:51:28.992Z,1249.00
2023-01-11T07:52:28.986Z,1190.00
2023-01-11T07:53:28.963Z,1146.00
2023-01-11T07:54:28.944Z,1101.00
2023-01-11T07:56:31.107Z,1021.00
2023-01-11T07:57:31.323Z,1021.00
2023-01-11T07:58:28.915Z,1021.00
2023-01-11T07:59:28.852Z,990.00
2023-01-11T08:00:28.844Z,981.00
2023-01-11T08:01:28.815Z,947.00
2023-01-11T08:02:28.909Z,965.00
2023-01-11T08:03:28.901Z,967.00
2023-01-11T08:04:28.755Z,934.00
2023-01-11T08:05:28.763Z,917.00
2023-01-11T08:06:28.700Z,926.00
2023-01-11T08:07:28.698Z,932.00
2023-01-11T08:08:28.651Z,942.00
2023-01-11T08:09:28.619Z,941.00
2023-01-11T08:10:28.635Z,968.00
2023-01-11T08:11:28.640Z,955.00
2023-01-11T08:12:31.127Z,977.00
2023-01-11T08:13:29.180Z,979.00
2023-01-11T08:20:28.511Z,984.00
2023-01-11T08:21:30.013Z,1001.00
2023-01-11T08:22:28.413Z,1040.00
2023-01-11T08:23:28.416Z,983.00
2023-01-11T08:24:28.368Z,1003.00
2023-01-11T08:25:28.443Z,1042.00
2023-01-11T08:26:28.320Z,1099.00
2023-01-11T08:27:28.240Z,1189.00
2023-01-11T08:28:28.202Z,1212.00
2023-01-11T08:29:28.173Z,1230.00
2023-01-11T08:30:28.225Z,1242.00
2023-01-11T08:31:28.222Z,1252.00
2023-01-11T08:32:28.073Z,1258.00
2023-01-11T08:33:28.017Z,1256.00
2023-01-11T08:34:28.071Z,1266.00
2023-01-11T08:35:27.934Z,1271.00
2023-01-11T08:36:28.276Z,1261.00
2023-01-11T08:37:27.880Z,1234.00
2023-01-11T08:38:28.452Z,1231.00
2023-01-11T08:39:27.903Z,1220.00
2023-01-11T08:40:28.027Z,1228.00
2023-01-11T08:41:27.782Z,1235.00
2023-01-11T08:42:27.717Z,1237.00
2023-01-11T08:43:27.686Z,1239.00
2023-01-11T08:44:34.378Z,1246.00
2023-01-11T08:45:28.598Z,1237.00
2023-01-11T08:46:27.584Z,1242.00
2023-01-11T08:47:27.532Z,1237.00
2023-01-11T08:48:27.469Z,1242.00
2023-01-11T08:49:27.437Z,1250.00
2023-01-11T08:50:27.555Z,1263.00
2023-01-11T08:51:27.415Z,1273.00
2023-01-11T08:52:27.382Z,1267.00
2023-01-11T08:53:27.323Z,1254.00
2023-01-11T08:54:27.269Z,1254.00
2023-01-11T08:55:27.234Z,1251.00
2023-01-11T08:56:27.246Z,1249.00
2023-01-11T08:57:27.163Z,1234.00
2023-01-11T08:58:27.161Z,1230.00
2023-01-11T08:59:27.117Z,1229.00
2023-01-11T09:00:27.136Z,1229.00
2023-01-11T09:01:27.080Z,1220.00
2023-01-11T09:02:27.028Z,1207.00
2023-01-11T09:03:26.978Z,1195.00
2023-01-11T09:04:26.932Z,1229.00
2023-01-11T09:05:26.911Z,1206.00
2023-01-11T09:06:26.907Z,1195.00
2023-01-11T09:07:26.861Z,1186.00
2023-01-11T09:08:26.815Z,1158.00
2023-01-11T09:09:29.123Z,1154.00
2023-01-11T09:10:29.422Z,1154.00
2023-01-11T09:11:28.882Z,1155.00
2023-01-11T09:12:28.861Z,1155.00
2023-01-11T09:13:26.649Z,1154.00
2023-01-11T09:14:26.674Z,1154.00
2023-01-11T09:15:26.608Z,1120.00
2023-01-11T09:16:26.601Z,1107.00
2023-01-11T09:17:26.531Z,1109.00
2023-01-11T09:18:26.517Z,1098.00
2023-01-11T09:19:26.492Z,1082.00
2023-01-11T09:20:26.529Z,1043.00
2023-01-11T09:21:26.441Z,1015.00
2023-01-11T09:22:26.397Z,1004.00
2023-01-11T09:23:26.390Z,988.00
2023-01-11T09:24:26.351Z,982.00
2023-01-11T09:25:26.321Z,979.00
2023-01-11T09:26:26.283Z,955.00
2023-01-11T09:27:26.266Z,956.00
2023-01-11T09:28:26.234Z,913.00
2023-01-11T09:29:26.260Z,899.00
2023-01-11T09:30:26.223Z,870.00
2023-01-11T09:31:26.263Z,853.00
2023-01-11T09:32:26.141Z,890.00
2023-01-11T09:33:26.099Z,870.00
2023-01-11T09:34:26.065Z,811.00
2023-01-11T09:35:26.064Z,895.00
2023-01-11T09:36:26.045Z,898.00
2023-01-11T09:37:26.022Z,908.00
2023-01-11T09:38:25.993Z,916.00
2023-01-11T09:39:25.950Z,923.00
2023-01-11T09:40:25.964Z,948.00
2023-01-11T09:41:25.913Z,922.00
2023-01-11T09:42:25.901Z,937.00
2023-01-11T09:43:25.905Z,934.00
2023-01-11T09:44:25.824Z,926.00
2023-01-11T09:45:25.788Z,927.00
2023-01-11T09:46:25.787Z,920.00
2023-01-11T09:47:25.753Z,913.00
2023-01-11T09:48:25.704Z,707.00
2023-01-11T09:49:25.679Z,616.00
2023-01-11T09:50:25.679Z,636.00
2023-01-11T09:51:25.663Z,653.00
2023-01-11T09:52:25.654Z,666.00
2023-01-11T09:53:25.657Z,648.00
2023-01-11T09:54:25.618Z,636.00
2023-01-11T09:55:25.654Z,641.00
2023-01-11T09:56:25.669Z,639.00
2023-01-11T09:57:25.620Z,639.00
2023-01-11T09:58:25.668Z,641.00
2023-01-11T09:59:25.606Z,644.00
2023-01-11T10:00:25.714Z,647.00
2023-01-11T10:01:25.555Z,650.00
2023-01-11T10:02:25.636Z,664.00
2023-01-11T10:03:25.538Z,659.00
2023-01-11T10:04:25.542Z,667.00
2023-01-11T10:05:25.492Z,700.00
2023-01-11T10:06:25.448Z,692.00
2023-01-11T10:07:25.466Z,699.00
2023-01-11T10:18:28.736Z,724.00
2023-01-11T10:18:29.107Z,723.00
2023-01-11T10:18:30.455Z,721.00
2023-01-11T10:18:37.591Z,722.00
2023-01-11T10:18:49.436Z,724.00
2023-01-11T10:19:39.950Z,724.00
2023-01-11T10:20:26.390Z,722.00
2023-01-11T10:21:25.282Z,739.00
2023-01-11T10:22:25.267Z,762.00
2023-01-11T10:23:25.233Z,778.00
2023-01-11T10:24:25.203Z,809.00
2023-01-11T10:25:25.196Z,793.00
2023-01-11T10:26:25.154Z,713.00
2023-01-11T10:27:25.166Z,718.00
2023-01-11T10:28:25.139Z,687.00
2023-01-11T10:29:25.088Z,694.00
2023-01-11T10:30:25.080Z,655.00
2023-01-11T10:31:25.101Z,676.00
2023-01-11T10:32:25.005Z,666.00
2023-01-11T10:33:24.991Z,657.00
2023-01-11T10:34:24.963Z,753.00
2023-01-11T10:35:25.052Z,716.00
2023-01-11T10:36:24.919Z,719.00
2023-01-11T10:37:25.492Z,661.00
2023-01-11T10:38:24.906Z,686.00
2023-01-11T10:39:24.916Z,703.00
2023-01-11T10:40:24.851Z,651.00
2023-01-11T10:41:24.814Z,644.00
2023-01-11T10:42:24.783Z,668.00
2023-01-11T10:43:24.755Z,627.00
2023-01-11T10:44:24.757Z,668.00
2023-01-11T10:45:24.745Z,745.00
2023-01-11T10:46:24.697Z,773.00
2023-01-11T10:47:24.715Z,802.00
2023-01-11T10:48:24.694Z,736.00
2023-01-11T10:49:24.649Z,749.00
2023-01-11T10:50:24.615Z,760.00
2023-01-11T10:51:24.601Z,753.00
2023-01-11T10:52:24.561Z,783.00
2023-01-11T10:53:24.566Z,769.00
2023-01-11T10:54:24.523Z,771.00
2023-01-11T10:55:24.484Z,757.00
2023-01-11T10:56:24.522Z,771.00
2023-01-11T10:57:24.442Z,769.00
2023-01-11T11:08:24.205Z,756.00
2023-01-11T11:13:24.115Z,705.00
2023-01-11T11:37:23.405Z,766.00
2023-01-11T11:38:23.383Z,771.00
2023-01-11T11:39:23.379Z,764.00
2023-01-11T11:40:23.311Z,780.00
2023-01-11T11:41:23.287Z,776.00
2023-01-11T11:42:23.251Z,767.00
2023-01-11T11:43:23.212Z,771.00
2023-01-11T11:44:23.201Z,780.00
2023-01-11T11:45:23.178Z,788.00
2023-01-11T11:46:23.175Z,800.00
2023-01-11T11:47:23.073Z,785.00
2023-01-11T11:48:23.037Z,790.00
2023-01-11T11:49:23.010Z,791.00
2023-01-11T11:50:42.388Z,791.00
2023-01-11T11:51:23.960Z,791.00
2023-01-11T11:52:22.908Z,794.00
2023-01-11T11:53:22.881Z,798.00
2023-01-11T11:54:22.862Z,805.00
2023-01-11T11:55:22.815Z,818.00
2023-01-11T11:56:22.787Z,808.00
2023-01-11T11:57:22.771Z,810.00
2023-01-11T11:58:22.694Z,816.00
2023-01-11T11:59:22.689Z,821.00
2023-01-11T12:00:22.640Z,824.00
2023-01-11T12:01:22.604Z,825.00
2023-01-11T12:02:22.609Z,824.00
2023-01-11T12:03:22.506Z,822.00
2023-01-11T12:04:22.565Z,820.00
2023-01-11T12:05:22.453Z,827.00
2023-01-11T12:06:22.393Z,827.00
2023-01-11T12:07:22.334Z,822.00
2023-01-11T12:08:22.331Z,822.00
2023-01-11T12:09:22.290Z,823.00
2023-01-11T12:10:22.241Z,825.00
2023-01-11T12:11:22.188Z,828.00
2023-01-11T12:12:24.952Z,834.00
2023-01-11T12:13:22.136Z,823.00
2023-01-11T12:14:22.123Z,825.00
2023-01-11T12:15:22.075Z,826.00
2023-01-11T12:16:22.048Z,841.00
2023-01-11T12:17:21.979Z,828.00
2023-01-11T12:18:21.923Z,825.00
2023-01-11T12:19:21.889Z,815.00
2023-01-11T12:20:21.859Z,824.00
2023-01-11T12:21:21.831Z,811.00
2023-01-11T12:22:21.789Z,807.00
2023-01-11T12:23:21.774Z,807.00
2023-01-11T12:24:21.800Z,793.00
2023-01-11T12:25:21.695Z,784.00
2023-01-11T12:26:21.680Z,794.00
2023-01-11T12:27:21.731Z,785.00
2023-01-11T12:28:21.582Z,782.00
2023-01-11T12:29:21.610Z,764.00
2023-01-11T12:30:21.526Z,760.00
2023-01-11T12:31:21.514Z,769.00
2023-01-11T12:32:21.484Z,780.00
2023-01-11T12:33:21.459Z,777.00
2023-01-11T12:34:21.500Z,785.00
2023-01-11T12:35:21.426Z,786.00
2023-01-11T12:36:21.384Z,770.00
2023-01-11T12:37:21.300Z,761.00
2023-01-11T12:38:21.272Z,767.00
2023-01-11T12:39:21.254Z,767.00
2023-01-11T12:40:21.214Z,784.00
2023-01-11T12:41:21.237Z,794.00
2023-01-11T12:42:21.161Z,824.00
2023-01-11T12:43:21.147Z,823.00
2023-01-11T12:44:21.253Z,810.00
2023-01-11T12:45:21.078Z,825.00
2023-01-11T12:46:21.242Z,828.00
2023-01-11T12:47:21.020Z,844.00
2023-01-11T12:48:21.001Z,861.00
2023-01-11T12:49:20.960Z,860.00
2023-01-11T12:50:20.931Z,862.00
2023-01-11T12:51:20.896Z,867.00
2023-01-11T12:52:20.871Z,883.00
2023-01-11T12:53:20.822Z,914.00
2023-01-11T12:54:20.921Z,959.00
2023-01-11T12:55:20.814Z,971.00
2023-01-11T12:56:20.761Z,987.00
2023-01-11T12:57:20.698Z,1018.00
2023-01-11T12:58:20.677Z,1035.00
2023-01-11T12:59:20.629Z,1033.00
2023-01-11T13:00:20.622Z,1039.00
2023-01-11T13:01:20.660Z,1059.00
2023-01-11T13:02:20.585Z,1108.00
2023-01-11T13:03:20.505Z,1126.00
2023-01-11T13:04:20.561Z,1153.00
2023-01-11T13:05:20.455Z,1175.00
2023-01-11T13:06:20.429Z,1219.00
2023-01-11T13:07:20.401Z,1239.00
2023-01-11T13:08:20.363Z,1263.00
2023-01-11T13:09:20.311Z,1295.00
2023-01-11T13:10:20.348Z,1320.00
2023-01-11T13:11:20.254Z,1336.00
2023-01-11T13:12:20.242Z,1343.00
2023-01-11T13:13:20.196Z,1376.00
2023-01-11T13:14:22.203Z,1409.00
2023-01-11T13:15:20.116Z,1423.00
2023-01-11T13:16:20.167Z,1420.00
2023-01-11T13:17:20.059Z,1416.00
2023-01-11T13:18:20.050Z,1436.00
2023-01-11T13:19:20.005Z,1427.00
2023-01-11T13:20:19.977Z,1442.00
2023-01-11T13:21:19.981Z,1462.00
2023-01-11T13:22:19.937Z,1471.00
2023-01-11T13:23:19.897Z,1497.00
2023-01-11T13:24:19.948Z,1502.00
2023-01-11T13:25:19.857Z,1507.00
2023-01-11T13:26:19.904Z,1511.00
2023-01-11T13:27:19.914Z,1512.00
2023-01-11T13:28:24.007Z,1513.00
2023-01-11T13:29:19.800Z,1513.00
2023-01-11T13:30:19.785Z,1519.00
2023-01-11T13:31:19.855Z,1530.00
2023-01-11T13:32:19.700Z,1549.00
2023-01-11T13:33:19.676Z,1570.00
2023-01-11T13:34:19.688Z,1584.00
2023-01-11T13:35:19.612Z,1585.00
2023-01-11T13:36:23.718Z,1588.00
2023-01-11T13:37:19.564Z,1586.00
2023-01-11T13:38:19.508Z,1589.00
2023-01-11T13:39:19.559Z,1599.00
2023-01-11T13:40:19.440Z,1613.00
2023-01-11T13:41:19.426Z,1639.00
2023-01-11T13:42:19.446Z,1640.00
2023-01-11T13:43:19.374Z,1644.00
2023-01-11T13:44:19.413Z,1649.00
2023-01-11T13:45:19.302Z,1646.00
2023-01-11T13:46:19.347Z,1659.00
2023-01-11T13:47:20.062Z,1651.00
2023-01-11T13:48:19.199Z,1667.00
2023-01-11T13:49:19.314Z,1663.00
2023-01-11T13:50:19.142Z,1677.00
2023-01-11T13:51:20.050Z,1696.00
2023-01-11T13:52:19.057Z,1718.00
2023-01-11T13:53:19.058Z,1727.00
2023-01-11T13:54:19.036Z,1734.00
2023-01-11T13:55:26.128Z,1742.00
2023-01-11T13:56:19.964Z,1743.00
2023-01-11T13:57:18.899Z,1745.00
2023-01-11T13:58:18.880Z,1750.00
2023-01-11T13:59:18.853Z,1761.00
2023-01-11T14:00:18.819Z,1777.00
2023-01-11T14:01:18.803Z,1786.00
2023-01-11T14:02:18.742Z,1796.00
2023-01-11T14:03:18.779Z,1796.00
2023-01-11T14:04:18.748Z,1797.00
2023-01-11T14:05:18.663Z,1801.00
2023-01-11T14:06:18.597Z,1802.00
2023-01-11T14:07:18.606Z,1805.00
2023-01-11T14:08:18.558Z,1810.00
2023-01-11T14:09:18.537Z,1816.00
2023-01-11T14:10:18.503Z,1841.00
2023-01-11T14:11:18.455Z,1827.00
2023-01-11T14:12:18.441Z,1840.00
2023-01-11T14:13:18.441Z,1837.00
2023-01-11T14:14:18.489Z,1851.00
2023-01-11T14:15:18.334Z,1859.00
2023-01-11T14:16:18.321Z,1854.00
2023-01-11T14:17:18.268Z,1861.00
2023-01-11T14:18:18.268Z,1860.00
2023-01-11T14:19:18.221Z,1861.00
2023-01-11T14:20:18.221Z,1859.00
2023-01-11T14:21:18.139Z,1861.00
2023-01-11T14:22:18.089Z,1877.00
2023-01-11T14:23:18.122Z,1868.00
2023-01-11T14:24:18.030Z,1875.00
2023-01-11T14:25:18.007Z,1881.00
2023-01-11T14:26:18.177Z,1878.00
2023-01-11T14:27:17.992Z,1877.00
2023-01-11T14:28:17.909Z,1879.00
2023-01-11T14:29:17.886Z,1871.00
2023-01-11T14:30:17.837Z,1869.00
2023-01-11T14:31:17.890Z,1893.00
2023-01-11T14:32:17.785Z,1882.00
2023-01-11T14:33:17.736Z,1896.00
2023-01-11T14:34:17.795Z,1884.00
2023-01-11T14:35:17.695Z,1889.00
2023-01-11T14:36:17.646Z,1891.00
2023-01-11T14:37:17.620Z,1891.00
2023-01-11T14:38:17.593Z,1890.00
2023-01-11T14:39:17.577Z,1895.00
2023-01-11T14:40:17.523Z,1902.00
2023-01-11T14:41:17.485Z,1895.00
2023-01-11T14:42:30.428Z,1899.00
2023-01-11T14:43:18.417Z,1899.00
2023-01-11T14:44:17.450Z,1900.00
2023-01-11T14:45:17.341Z,1904.00
2023-01-11T14:46:17.394Z,1906.00
2023-01-11T14:47:17.252Z,1902.00
2023-01-11T14:48:17.224Z,1914.00
2023-01-11T14:49:17.313Z,1919.00
2023-01-11T14:50:17.168Z,1909.00
2023-01-11T14:51:17.135Z,1907.00
2023-01-11T14:52:18.589Z,1910.00
2023-01-11T14:53:17.059Z,1919.00
2023-01-11T14:54:17.086Z,1920.00
2023-01-11T14:55:16.969Z,1916.00
2023-01-11T14:56:16.909Z,1913.00
2023-01-11T14:57:16.886Z,1919.00
2023-01-11T14:58:16.813Z,1904.00
2023-01-11T14:59:16.808Z,1913.00
2023-01-11T15:00:16.780Z,1914.00
2023-01-11T15:01:16.748Z,1915.00
2023-01-11T15:02:16.747Z,1916.00
2023-01-11T15:03:16.710Z,1921.00
2023-01-11T15:04:16.734Z,1917.00
2023-01-11T15:05:16.692Z,1914.00
2023-01-11T15:06:16.584Z,1915.00
2023-01-11T15:07:16.529Z,1917.00
2023-01-11T15:08:16.496Z,1925.00
2023-01-11T15:09:16.469Z,1931.00
2023-01-11T15:10:16.426Z,1935.00
2023-01-11T15:11:16.384Z,1923.00
2023-01-11T15:12:16.385Z,1923.00
2023-01-11T15:13:16.364Z,1922.00
2023-01-11T15:14:16.353Z,1915.00
2023-01-11T15:15:16.255Z,1924.00
2023-01-11T15:16:16.272Z,1923.00
2023-01-11T15:17:16.186Z,1930.00
2023-01-11T15:18:16.154Z,1919.00
2023-01-11T15:19:16.120Z,1909.00
2023-01-11T15:20:16.094Z,1918.00
2023-01-11T15:21:16.138Z,1910.00
2023-01-11T15:22:16.037Z,1917.00
2023-01-11T15:23:15.999Z,1924.00
2023-01-11T15:24:15.983Z,1924.00
2023-01-11T15:25:15.911Z,1925.00
2023-01-11T15:26:15.876Z,1925.00
2023-01-11T15:27:15.913Z,1928.00
2023-01-11T15:28:15.833Z,1920.00
2023-01-11T15:29:15.780Z,1937.00
2023-01-11T15:30:15.746Z,1925.00
2023-01-11T15:31:15.760Z,1928.00
2023-01-11T15:32:15.663Z,1924.00
2023-01-11T15:33:15.681Z,1931.00
2023-01-11T15:34:15.604Z,1928.00
2023-01-11T15:35:15.603Z,1918.00
2023-01-11T15:36:15.574Z,1921.00
2023-01-11T15:37:15.531Z,1927.00
2023-01-11T15:38:15.492Z,1912.00
2023-01-11T15:39:15.472Z,1909.00
2023-01-11T15:40:15.443Z,1917.00
2023-01-11T15:41:15.400Z,1928.00
2023-01-11T15:42:15.362Z,1918.00
2023-01-11T15:43:15.326Z,1913.00
2023-01-11T15:44:15.292Z,1914.00
2023-01-11T15:45:15.293Z,1922.00
2023-01-11T15:46:15.283Z,1913.00
2023-01-11T15:47:15.206Z,1915.00
2023-01-11T15:48:15.174Z,1913.00
2023-01-11T15:49:15.156Z,1915.00
2023-01-11T15:50:15.121Z,1912.00
2023-01-11T15:51:15.077Z,1916.00
2023-01-11T15:52:15.061Z,1903.00
2023-01-11T15:53:15.070Z,1911.00
2023-01-11T15:54:14.991Z,1902.00
2023-01-11T15:55:14.979Z,1906.00
2023-01-11T15:56:14.977Z,1901.00
2023-01-11T15:57:14.908Z,1902.00
2023-01-11T15:58:14.881Z,1894.00
2023-01-11T15:59:14.848Z,1905.00
2023-01-11T16:00:14.824Z,1900.00
2023-01-11T16:01:14.833Z,1895.00
2023-01-11T16:02:14.769Z,1897.00
2023-01-11T16:03:14.752Z,1896.00
2023-01-11T16:04:14.784Z,1893.00
2023-01-11T16:05:14.688Z,1903.00
2023-01-11T16:06:14.704Z,1893.00
2023-01-11T16:07:14.658Z,1898.00
2023-01-11T16:08:14.631Z,1894.00
2023-01-11T16:09:14.705Z,1890.00
2023-01-11T16:10:14.630Z,1890.00
2023-01-11T16:11:14.595Z,1879.00
2023-01-11T16:12:14.559Z,1888.00
2023-01-11T16:13:14.530Z,1891.00
2023-01-11T16:14:14.503Z,1874.00
2023-01-11T16:15:14.490Z,1897.00
2023-01-11T16:16:14.557Z,1880.00
2023-01-11T16:17:14.443Z,1876.00
2023-01-11T16:18:14.406Z,1876.00
2023-01-11T16:19:14.390Z,1889.00
2023-01-11T16:20:14.356Z,1882.00
2023-01-11T16:21:14.330Z,1886.00
2023-01-11T16:22:14.289Z,1871.00
2023-01-11T16:23:14.232Z,1873.00
2023-01-11T16:24:14.228Z,1867.00
2023-01-11T16:25:14.203Z,1874.00
2023-01-11T16:26:14.152Z,1872.00
2023-01-11T16:27:14.150Z,1868.00
2023-01-11T16:28:14.084Z,1869.00
2023-01-11T16:29:14.064Z,1869.00
2023-01-11T16:30:14.013Z,1869.00
2023-01-11T16:31:14.005Z,1877.00
2023-01-11T16:32:13.936Z,1878.00
2023-01-11T16:33:13.904Z,1871.00
2023-01-11T16:34:13.867Z,1868.00
2023-01-11T16:35:13.814Z,1878.00
2023-01-11T16:36:13.792Z,1869.00
2023-01-11T16:37:13.757Z,1864.00
2023-01-11T16:38:13.723Z,1862.00
2023-01-11T16:39:13.696Z,1871.00
2023-01-11T16:40:13.629Z,1865.00
2023-01-11T16:41:13.626Z,1860.00
2023-01-11T16:42:13.583Z,1860.00
2023-01-11T16:43:13.542Z,1848.00
2023-01-11T16:44:13.497Z,1856.00
2023-01-11T16:45:13.623Z,1858.00
2023-01-11T16:46:13.526Z,1850.00
2023-01-11T16:47:13.430Z,1845.00
2023-01-11T16:48:13.408Z,1839.00
2023-01-11T16:49:13.372Z,1848.00
2023-01-11T16:50:13.337Z,1841.00
2023-01-11T16:51:13.308Z,1854.00
2023-01-11T16:52:13.286Z,1844.00
2023-01-11T16:53:13.246Z,1851.00
2023-01-11T16:54:13.341Z,1829.00
2023-01-11T16:55:13.224Z,1821.00
2023-01-11T16:56:13.179Z,1831.00
2023-01-11T16:57:15.103Z,1828.00
2023-01-11T16:58:13.133Z,1845.00
2023-01-11T16:59:13.087Z,1833.00
2023-01-11T17:00:13.073Z,1818.00
2023-01-11T17:01:13.132Z,1839.00
2023-01-11T17:02:13.076Z,1834.00
2023-01-11T17:03:12.993Z,1834.00
2023-01-11T17:04:19.213Z,1836.00
2023-01-11T17:05:13.943Z,1836.00
2023-01-11T17:06:12.909Z,1837.00
2023-01-11T17:07:12.896Z,1828.00
2023-01-11T17:08:12.892Z,1836.00
2023-01-11T17:09:19.437Z,1836.00
2023-01-11T17:10:13.840Z,1835.00
2023-01-11T17:11:12.806Z,1835.00
2023-01-11T17:12:12.833Z,1829.00
2023-01-11T17:13:12.749Z,1826.00
2023-01-11T17:14:12.741Z,1824.00
2023-01-11T17:15:12.687Z,1829.00
2023-01-11T17:16:12.718Z,1830.00
2023-01-11T17:17:12.951Z,1817.00
2023-01-11T17:18:12.595Z,1818.00
2023-01-11T17:19:12.546Z,1819.00
2023-01-11T17:20:12.519Z,1824.00
2023-01-11T17:21:12.494Z,1812.00
2023-01-11T17:22:12.459Z,1804.00
2023-01-11T17:23:12.415Z,1811.00
2023-01-11T17:24:12.395Z,1810.00
2023-01-11T17:25:12.346Z,1804.00
2023-01-11T17:26:14.809Z,1810.00
2023-01-11T17:27:12.537Z,1796.00
2023-01-11T17:28:12.485Z,1804.00
2023-01-11T17:29:12.477Z,1809.00
2023-01-11T17:30:12.420Z,1799.00
2023-01-11T17:31:12.388Z,1801.00
2023-01-11T17:32:12.365Z,1795.00
2023-01-11T17:33:12.344Z,1798.00
2023-01-11T17:34:12.354Z,1788.00
2023-01-11T17:35:12.397Z,1779.00
2023-01-11T17:36:12.401Z,1783.00
2023-01-11T17:37:12.447Z,1786.00
2023-01-11T17:38:12.494Z,1787.00
2023-01-11T17:39:12.501Z,1775.00
2023-01-11T17:40:12.526Z,1781.00
2023-01-11T17:41:12.616Z,1781.00
2023-01-11T17:42:12.597Z,1778.00
2023-01-11T17:43:12.634Z,1777.00
2023-01-11T17:44:12.655Z,1772.00
2023-01-11T17:45:12.695Z,1769.00
2023-01-11T17:46:12.730Z,1764.00
2023-01-11T17:47:12.749Z,1767.00
2023-01-11T17:48:12.772Z,1757.00
2023-01-11T17:49:12.806Z,1761.00
2023-01-11T17:50:14.699Z,1755.00
2023-01-11T17:51:12.818Z,1749.00
2023-01-11T17:52:12.780Z,1763.00
2023-01-11T17:53:12.791Z,1755.00
2023-01-11T17:54:12.722Z,1744.00
2023-01-11T17:55:12.703Z,1740.00
2023-01-11T17:56:12.664Z,1746.00
2023-01-11T17:57:12.643Z,1737.00
2023-01-11T17:58:12.680Z,1744.00
2023-01-11T17:59:12.682Z,1737.00
2023-01-11T18:00:12.719Z,1737.00
2023-01-11T18:01:12.807Z,1723.00
2023-01-11T18:02:12.810Z,1716.00
2023-01-11T18:03:12.826Z,1733.00
2023-01-11T18:04:12.848Z,1723.00
2023-01-11T18:05:12.879Z,1727.00
2023-01-11T18:06:12.908Z,1724.00
2023-01-11T18:07:12.954Z,1722.00
2023-01-11T18:08:12.974Z,1710.00
2023-01-11T18:09:13.014Z,1706.00
2023-01-11T18:10:13.018Z,1706.00
2023-01-11T18:11:13.062Z,1724.00
2023-01-11T18:12:13.099Z,1704.00
2023-01-11T18:13:13.121Z,1711.00
2023-01-11T18:14:13.193Z,1702.00
2023-01-11T18:15:13.194Z,1701.00
2023-01-11T18:16:13.237Z,1695.00
2023-01-11T18:17:13.262Z,1711.00
2023-01-11T18:18:13.275Z,1688.00
2023-01-11T18:19:13.331Z,1693.00
2023-01-11T18:20:13.345Z,1692.00
2023-01-11T18:21:13.375Z,1688.00
2023-01-11T18:22:13.408Z,1685.00
2023-01-11T18:23:13.450Z,1689.00
2023-01-11T18:24:13.474Z,1677.00
2023-01-11T18:25:13.508Z,1675.00
2023-01-11T18:26:13.522Z,1671.00
2023-01-11T18:27:13.634Z,1683.00
2023-01-11T18:28:13.582Z,1674.00
2023-01-11T18:29:13.622Z,1670.00
2023-01-11T18:30:13.646Z,1673.00
2023-01-11T18:31:13.707Z,1662.00
2023-01-11T18:32:13.710Z,1670.00
2023-01-11T18:33:13.741Z,1673.00
2023-01-11T18:34:13.797Z,1665.00
2023-01-11T18:35:13.790Z,1659.00
2023-01-11T18:36:13.839Z,1652.00